Time;durP1;ratioP1;P1;durP2;ratioP2;P2;SDS_P1;SDS_P2;PMS_P1;PMS_P2;Temp;Humidity;BMP_temperature;BMP_pressure;BME280_temperature;BME280_humidity;BME280_pressure;Samples;Min_cycle;Max_cycle;Signal;HPM_P1;HPM_P2
2022/11/09 00:01:29;;;;;;;24.13;15.55;;;;;;;8.43;72.55;99708.44;5051734;28;20036;-60
2022/11/09 00:04:00;;;;;;;24.83;15.02;;;;;;;8.52;72.54;99712.28;5052688;28;20131;-60
2022/11/09 00:06:26;;;;;;;26.83;16.10;;;;;;;8.42;72.21;99701.38;5034091;28;20144;-61
2022/11/09 00:08:52;;;;;;;24.13;14.85;;;;;;;8.49;72.38;99704.47;5051263;28;20025;-58
2022/11/09 00:11:18;;;;;;;30.17;15.48;;;;;;;8.51;72.38;99707.06;5043223;28;20029;-59
2022/11/09 00:13:44;;;;;;;26.27;15.38;;;;;;;8.50;72.48;99705.34;5032377;28;20424;-60
2022/11/09 00:16:12;;;;;;;25.77;15.75;;;;;;;8.55;72.59;99720.03;5049365;28;20131;-59
2022/11/09 00:18:39;;;;;;;29.25;15.13;;;;;;;8.48;72.50;99708.97;5046690;28;20040;-61
2022/11/09 00:21:10;;;;;;;29.20;15.95;;;;;;;8.53;72.95;99721.13;5032592;28;20467;-60
2022/11/09 00:23:35;;;;;;;26.05;15.95;;;;;;;8.46;72.85;99710.03;5032297;28;20033;-60
2022/11/09 00:26:06;;;;;;;26.83;15.05;;;;;;;8.56;73.14;99726.25;5046281;28;20340;-61
2022/11/09 00:28:32;;;;;;;26.95;15.88;;;;;;;8.52;73.09;99714.09;5052519;28;20056;-61
2022/11/09 00:30:59;;;;;;;25.08;14.30;;;;;;;8.56;73.13;99723.56;5047532;28;20032;-61
2022/11/09 00:33:25;;;;;;;26.48;15.25;;;;;;;8.55;72.99;99714.72;5052100;28;20029;-60
2022/11/09 00:35:50;;;;;;;24.25;14.98;;;;;;;8.59;73.19;99726.00;5045922;28;20089;-59
2022/11/09 00:38:16;;;;;;;24.98;15.27;;;;;;;8.58;73.09;99721.66;5042277;28;20062;-59
2022/11/09 00:40:41;;;;;;;23.00;14.30;;;;;;;8.56;73.00;99715.56;5032402;28;20030;-58
2022/11/09 00:43:07;;;;;;;26.10;16.10;;;;;;;8.45;72.74;99697.66;5032305;28;20053;-57
2022/11/09 00:45:32;;;;;;;28.15;15.98;;;;;;;8.52;73.13;99719.44;5040829;28;20037;-58
2022/11/09 00:47:58;;;;;;;23.80;15.00;;;;;;;8.57;73.18;99722.63;5036289;28;20038;-59
2022/11/09 00:50:23;;;;;;;25.95;15.77;;;;;;;8.58;72.91;99721.66;5032598;28;20042;-61
2022/11/09 00:52:48;;;;;;;24.48;15.40;;;;;;;8.59;73.16;99728.69;5032298;28;20092;-58
2022/11/09 00:55:14;;;;;;;25.85;16.17;;;;;;;8.58;73.04;99730.53;5033778;28;20403;-59
2022/11/09 00:57:39;;;;;;;24.27;15.48;;;;;;;8.61;73.33;99729.41;5048402;28;20366;-59
2022/11/09 01:00:05;;;;;;;27.55;16.27;;;;;;;8.64;72.98;99731.03;5038891;28;20042;-60
2022/11/09 01:02:31;;;;;;;26.83;16.80;;;;;;;8.66;72.90;99732.59;5031835;28;20037;-59
2022/11/09 01:04:57;;;;;;;25.23;15.93;;;;;;;8.67;73.04;99723.63;5039158;28;20462;-52
2022/11/09 01:07:22;;;;;;;24.48;15.20;;;;;;;8.64;72.82;99717.69;5045153;28;20064;-55
2022/11/09 01:09:48;;;;;;;28.48;17.23;;;;;;;8.67;72.80;99731.63;5032186;28;20368;-56
2022/11/09 01:12:13;;;;;;;26.42;16.88;;;;;;;8.56;73.21;99702.22;5030809;28;20037;-55
2022/11/09 01:14:38;;;;;;;27.48;16.55;;;;;;;8.71;73.01;99721.59;5036413;28;20032;-57
2022/11/09 01:17:04;;;;;;;25.48;15.95;;;;;;;8.71;72.87;99722.44;5050519;28;21024;-57
2022/11/09 01:19:29;;;;;;;25.15;16.35;;;;;;;8.72;73.49;99721.47;5050787;28;20028;-57
2022/11/09 01:21:55;;;;;;;26.33;16.67;;;;;;;8.74;73.03;99734.69;5051513;28;20220;-59
2022/11/09 01:24:20;;;;;;;26.65;16.50;;;;;;;8.55;73.47;99692.53;5042787;28;20100;-56
2022/11/09 01:26:46;;;;;;;28.42;17.45;;;;;;;8.73;73.39;99733.88;5044641;28;20041;-54
2022/11/09 01:29:11;;;;;;;26.45;16.73;;;;;;;8.72;73.49;99718.81;5049713;28;20051;-54
2022/11/09 01:31:36;;;;;;;27.95;17.08;;;;;;;8.72;73.11;99721.47;5053904;28;20025;-56
2022/11/09 01:34:02;;;;;;;30.00;17.38;;;;;;;8.72;73.36;99721.47;5054978;28;20051;-58
2022/11/09 01:36:27;;;;;;;28.52;17.00;;;;;;;8.69;73.47;99735.06;5044593;28;20041;-60
2022/11/09 01:38:53;;;;;;;28.77;17.25;;;;;;;8.68;73.57;99722.69;5047191;28;20025;-55
2022/11/09 01:41:28;;;;;;;28.48;17.17;;;;;;;8.81;73.68;99735.09;5055575;28;20045;-53
2022/11/09 01:44:15;;;;;;;26.63;17.13;;;;;;;8.87;73.40;99735.50;5055382;28;20052;-57
2022/11/09 01:47:10;;;;;;;29.23;17.20;;;;;;;8.79;73.35;99734.38;5055573;28;20039;-58
2022/11/09 01:49:53;;;;;;;30.38;17.35;;;;;;;8.86;73.61;99738.25;5042804;28;20048;-59
2022/11/09 01:52:30;;;;;;;29.38;17.58;;;;;;;8.65;73.23;99709.53;5054659;28;20044;-60
2022/11/09 01:55:00;;;;;;;27.95;17.40;;;;;;;8.81;73.33;99741.31;5050807;28;20367;-57
2022/11/09 01:57:31;;;;;;;28.58;17.75;;;;;;;8.81;73.35;99740.44;5048882;28;20033;-57
2022/11/09 02:00:03;;;;;;;30.75;17.88;;;;;;;8.79;73.36;99737.03;5052892;28;20412;-58
2022/11/09 02:02:30;;;;;;;29.45;17.05;;;;;;;8.74;73.28;99735.56;5050058;28;20118;-55
2022/11/09 02:05:02;;;;;;;27.17;16.70;;;;;;;8.84;73.24;99743.75;5049086;28;20057;-56
2022/11/09 02:07:29;;;;;;;30.60;18.13;;;;;;;8.80;73.59;99744.06;5035427;28;20455;-56
2022/11/09 02:10:02;;;;;;;28.52;17.42;;;;;;;8.89;73.55;99751.38;5035353;28;20029;-55
2022/11/09 02:12:33;;;;;;;28.27;16.55;;;;;;;8.86;73.39;99746.28;5044963;28;20039;-55
2022/11/09 02:15:02;;;;;;;25.58;17.20;;;;;;;8.86;73.44;99748.94;5055342;28;20401;-56
2022/11/09 02:17:30;;;;;;;34.55;17.75;;;;;;;8.83;73.67;99752.72;5042596;28;20480;-54
2022/11/09 02:19:58;;;;;;;28.80;17.20;;;;;;;8.88;73.67;99757.69;5044447;28;20037;-55
2022/11/09 02:22:25;;;;;;;26.90;17.40;;;;;;;8.84;73.37;99750.88;5045458;28;20109;-51
2022/11/09 02:24:51;;;;;;;29.13;17.73;;;;;;;8.84;73.21;99743.75;5035054;28;20041;-56
2022/11/09 02:27:17;;;;;;;28.75;17.08;;;;;;;8.92;73.63;99753.81;5034804;28;20038;-53
2022/11/09 02:29:45;;;;;;;27.02;15.95;;;;;;;8.87;73.31;99750.66;5034687;28;20034;-54
2022/11/09 02:32:19;;;;;;;23.30;15.63;;;;;;;8.95;73.42;99766.97;5041691;28;20033;-56
2022/11/09 02:34:45;;;;;;;27.05;16.55;;;;;;;8.90;73.68;99758.44;5054614;28;20036;-52
2022/11/09 02:37:10;;;;;;;26.02;16.73;;;;;;;8.87;73.61;99758.66;5054012;28;20037;-53
2022/11/09 02:39:36;;;;;;;26.85;16.20;;;;;;;8.82;73.64;99750.16;5044881;28;20111;-52
2022/11/09 02:42:07;;;;;;;27.00;16.08;;;;;;;8.92;73.96;99761.00;5048231;28;20095;-54
2022/11/09 02:44:42;;;;;;;24.42;14.32;;;;;;;8.75;73.62;99726.59;5034453;28;20060;-53
2022/11/09 02:47:07;;;;;;;21.70;14.13;;;;;;;8.86;73.63;99757.81;5034404;28;20033;-55
2022/11/09 02:49:33;;;;;;;24.50;14.32;;;;;;;8.85;73.74;99757.94;5034304;28;20116;-53
2022/11/09 02:51:58;;;;;;;24.77;14.55;;;;;;;8.85;73.96;99764.13;5034705;28;20033;-54
2022/11/09 02:54:24;;;;;;;21.13;13.30;;;;;;;8.86;73.65;99762.28;5034513;28;20033;-54
2022/11/09 02:56:49;;;;;;;23.10;13.63;;;;;;;8.85;73.96;99765.94;5034191;28;20033;-56
2022/11/09 02:59:15;;;;;;;21.30;13.27;;;;;;;8.84;73.88;99758.88;5050565;28;20069;-55
2022/11/09 03:01:40;;;;;;;20.60;13.10;;;;;;;8.86;74.11;99767.63;5052014;28;20086;-55
2022/11/09 03:04:05;;;;;;;19.35;13.15;;;;;;;8.89;73.65;99764.72;5033306;28;20439;-54
2022/11/09 03:06:34;;;;;;;20.65;12.73;;;;;;;8.89;73.80;99770.06;5034260;28;20480;-55
2022/11/09 03:09:10;;;;;;;22.70;14.00;;;;;;;8.95;74.13;99769.63;5034169;28;20026;-53
2022/11/09 03:11:37;;;;;;;20.17;13.10;;;;;;;8.88;73.62;99768.38;5038817;28;20032;-56
2022/11/09 03:14:03;;;;;;;20.05;12.65;;;;;;;8.93;73.52;99766.22;5044746;28;20028;-56
2022/11/09 03:16:28;;;;;;;22.05;13.40;;;;;;;8.85;73.82;99756.13;5054018;28;20106;-54
2022/11/09 03:18:54;;;;;;;22.30;13.23;;;;;;;8.87;74.10;99764.00;5053586;28;20029;-53
2022/11/09 03:21:21;;;;;;;21.75;12.43;;;;;;;8.93;74.10;99770.72;5051158;28;20025;-55
2022/11/09 03:23:47;;;;;;;21.55;13.45;;;;;;;8.93;73.77;99784.06;5033932;28;20041;-55
2022/11/09 03:26:12;;;;;;;20.02;12.63;;;;;;;8.90;73.90;99772.66;5037081;28;20079;-54
2022/11/09 03:28:38;;;;;;;20.42;12.30;;;;;;;8.93;73.94;99771.56;5053357;28;20040;-56
2022/11/09 03:31:04;;;;;;;23.02;13.35;;;;;;;8.97;73.77;99775.72;5053054;28;20033;-59
2022/11/09 03:33:30;;;;;;;21.88;13.15;;;;;;;9.00;74.03;99783.50;5033624;28;20032;-57
2022/11/09 03:35:55;;;;;;;20.80;12.95;;;;;;;9.01;73.60;99777.19;5033420;28;20127;-55
2022/11/09 03:38:20;;;;;;;20.48;12.70;;;;;;;9.00;73.47;99774.63;5033413;28;20064;-56
2022/11/09 03:40:46;;;;;;;20.95;13.20;;;;;;;8.88;73.92;99760.34;5033326;28;20384;-57
2022/11/09 03:43:12;;;;;;;18.35;11.98;;;;;;;9.04;73.46;99789.44;5050473;28;20468;-55
2022/11/09 03:45:37;;;;;;;17.15;11.82;;;;;;;9.02;73.80;99778.88;5053034;28;20095;-55
2022/11/09 03:48:03;;;;;;;19.70;12.63;;;;;;;9.08;73.57;99796.28;5052842;28;20037;-55
2022/11/09 03:50:30;;;;;;;19.50;12.85;;;;;;;9.01;73.59;99779.84;5046866;28;20116;-55
2022/11/09 03:52:58;;;;;;;18.08;11.93;;;;;;;9.10;73.65;99793.47;5048294;28;20041;-54
2022/11/09 03:55:25;;;;;;;17.27;11.50;;;;;;;9.08;73.64;99780.25;5053010;28;20048;-53
2022/11/09 03:57:50;;;;;;;20.42;12.10;;;;;;;8.95;73.35;99761.63;5052786;28;20024;-55
2022/11/09 04:00:18;;;;;;;18.95;11.68;;;;;;;9.17;73.34;99792.06;5053095;28;20043;-54
2022/11/09 04:02:44;;;;;;;17.92;11.43;;;;;;;9.18;73.28;99796.44;5039185;28;20041;-51
2022/11/09 04:05:10;;;;;;;21.23;12.60;;;;;;;9.16;73.00;99803.69;5032028;28;20475;-54
2022/11/09 04:07:36;;;;;;;18.13;11.40;;;;;;;9.17;73.50;99802.75;5032759;28;20364;-53
2022/11/09 04:10:03;;;;;;;19.88;12.63;;;;;;;9.15;73.58;99792.16;5033251;28;20059;-55
2022/11/09 04:12:29;;;;;;;17.73;12.18;;;;;;;9.20;73.28;99791.81;5042977;28;20045;-56
2022/11/09 04:14:54;;;;;;;18.73;11.95;;;;;;;9.05;73.25;99764.47;5045160;28;20033;-55
2022/11/09 04:17:19;;;;;;;18.10;11.95;;;;;;;9.23;72.94;99793.41;5032838;28;20341;-55
2022/11/09 04:19:45;;;;;;;18.35;11.95;;;;;;;9.04;73.49;99773.41;5033136;28;20365;-56
2022/11/09 04:22:10;;;;;;;18.42;12.32;;;;;;;9.07;73.25;99769.66;5040760;28;20464;-58
2022/11/09 04:24:36;;;;;;;15.45;11.40;;;;;;;9.29;73.00;99803.66;5051658;28;20028;-57
2022/11/09 04:27:01;;;;;;;26.42;14.85;;;;;;;9.29;73.01;99799.13;5052573;28;20454;-56
2022/11/09 04:29:27;;;;;;;19.25;12.55;;;;;;;9.27;73.04;99794.88;5052742;28;20098;-55
2022/11/09 04:31:52;;;;;;;21.08;11.80;;;;;;;9.30;73.07;99795.50;5046172;28;20083;-56
2022/11/09 04:34:17;;;;;;;16.65;11.50;;;;;;;9.31;72.94;99797.19;5032608;28;20460;-55
2022/11/09 04:36:43;;;;;;;18.77;12.63;;;;;;;9.31;73.00;99794.53;5033818;28;20035;-55
2022/11/09 04:39:09;;;;;;;17.63;12.30;;;;;;;9.33;72.97;99803.28;5032571;28;20037;-55
2022/11/09 04:41:35;;;;;;;18.52;12.85;;;;;;;9.31;72.90;99812.38;5035355;28;20468;-57
2022/11/09 04:44:00;;;;;;;17.95;12.38;;;;;;;9.30;72.58;99800.84;5052292;28;20129;-52
2022/11/09 04:46:26;;;;;;;20.33;12.52;;;;;;;9.37;72.79;99803.91;5052385;28;20041;-52
2022/11/09 04:48:52;;;;;;;17.23;11.48;;;;;;;9.40;72.86;99802.78;5052582;28;20043;-56
2022/11/09 04:51:17;;;;;;;19.40;12.77;;;;;;;9.41;72.48;99816.06;5049810;28;20105;-57
2022/11/09 04:53:44;;;;;;;18.10;12.73;;;;;;;9.37;72.56;99809.25;5045332;28;20033;-58
2022/11/09 04:56:10;;;;;;;18.85;11.95;;;;;;;9.39;72.97;99814.47;5051759;28;20029;-56
2022/11/09 04:58:35;;;;;;;16.70;11.85;;;;;;;9.39;72.91;99817.13;5049193;28;20040;-56
2022/11/09 05:01:06;;;;;;;20.98;13.02;;;;;;;9.44;72.66;99823.00;5049227;28;20065;-57
2022/11/09 05:03:31;;;;;;;17.15;12.23;;;;;;;9.43;73.03;99818.63;5055472;28;20036;-58
2022/11/09 05:05:56;;;;;;;20.55;12.00;;;;;;;9.42;72.36;99814.25;5056356;28;20040;-56
2022/11/09 05:08:22;;;;;;;18.58;11.95;;;;;;;9.47;72.57;99818.25;5056406;28;20106;-60
2022/11/09 05:10:47;;;;;;;17.75;12.80;;;;;;;9.50;72.48;99827.88;5052380;28;20057;-60
2022/11/09 05:13:13;;;;;;;18.40;12.75;;;;;;;9.51;72.37;99820.69;5035079;28;20091;-61
2022/11/09 05:15:39;;;;;;;16.65;12.15;;;;;;;9.55;72.14;99831.03;5036294;28;20112;-58
2022/11/09 05:18:06;;;;;;;18.77;12.43;;;;;;;9.58;72.41;99833.47;5036358;28;20049;-59
2022/11/09 05:20:33;;;;;;;20.10;13.75;;;;;;;9.60;71.92;99828.84;5035855;28;20411;-55
2022/11/09 05:25:44;;;;;;;18.20;12.90;;;;;;;9.68;71.99;99830.94;5037080;28;20041;-56
2022/11/09 05:28:10;;;;;;;19.42;13.40;;;;;;;9.67;71.77;99826.56;5046516;28;20463;-73
2022/11/09 05:30:35;;;;;;;16.92;12.57;;;;;;;9.65;71.53;99823.16;5055831;28;20116;-62
2022/11/09 05:33:01;;;;;;;19.77;12.98;;;;;;;9.65;72.01;99825.00;5054636;28;20044;-62
2022/11/09 05:35:26;;;;;;;17.80;12.80;;;;;;;9.70;71.80;99839.69;5054758;28;20053;-63
2022/11/09 05:37:51;;;;;;;20.52;13.52;;;;;;;9.68;71.78;99825.59;5054093;28;20054;-65
2022/11/09 05:40:19;;;;;;;20.85;12.57;;;;;;;9.76;72.24;99833.88;5035680;28;20029;-63
2022/11/09 05:42:45;;;;;;;22.08;12.60;;;;;;;9.80;71.47;99830.97;5035403;28;20075;-65
2022/11/09 05:45:13;;;;;;;20.17;13.18;;;;;;;9.90;71.34;99832.81;5035117;28;20456;-70
2022/11/09 05:47:42;;;;;;;17.05;12.52;;;;;;;10.00;70.83;99832.09;5045500;28;20041;-62
2022/11/09 05:50:13;;;;;;;17.50;12.40;;;;;;;9.96;70.93;99809.25;5035900;28;20116;-62
2022/11/09 05:52:38;;;;;;;16.25;12.02;;;;;;;10.18;70.26;99830.66;5035707;28;20067;-63
2022/11/09 05:55:05;;;;;;;16.75;12.38;;;;;;;10.23;70.17;99832.94;5049389;28;20052;-61
2022/11/09 05:57:30;;;;;;;16.48;11.75;;;;;;;10.29;69.57;99834.28;5055606;28;20029;-63
2022/11/09 05:59:56;;;;;;;17.30;12.00;;;;;;;10.31;69.49;99827.84;5037267;28;20349;-63
2022/11/09 06:02:22;;;;;;;19.08;11.77;;;;;;;10.34;69.29;99838.31;5035203;28;20453;-63
2022/11/09 06:04:48;;;;;;;18.38;12.00;;;;;;;10.34;69.32;99837.44;5035083;28;20033;-63
2022/11/09 06:07:14;;;;;;;16.95;11.75;;;;;;;10.38;69.39;99838.06;5035273;28;20460;-62
2022/11/09 06:09:39;;;;;;;20.05;13.02;;;;;;;10.39;69.45;99839.78;5049668;28;20024;-62
2022/11/09 06:12:05;;;;;;;15.68;12.00;;;;;;;10.39;69.14;99839.78;5042124;28;20052;-65
2022/11/09 06:14:31;;;;;;;17.55;12.63;;;;;;;10.42;69.22;99843.09;5047177;28;20035;-63
2022/11/09 06:16:56;;;;;;;16.92;12.30;;;;;;;10.42;69.42;99839.56;5054989;28;20120;-62
2022/11/09 06:19:21;;;;;;;19.67;11.85;;;;;;;10.45;69.31;99848.19;5040951;28;20063;-61
2022/11/09 06:21:47;;;;;;;17.63;13.15;;;;;;;10.44;69.09;99850.97;5035043;28;20030;-63
2022/11/09 06:24:12;;;;;;;17.55;12.20;;;;;;;10.39;69.17;99839.78;5034474;28;20040;-69
2022/11/09 06:26:38;;;;;;;18.17;12.38;;;;;;;10.34;69.18;99841.00;5035104;28;20033;-63
2022/11/09 06:29:03;;;;;;;19.17;12.77;;;;;;;10.32;69.54;99853.66;5044213;28;20025;-63
2022/11/09 06:31:29;;;;;;;19.42;11.80;;;;;;;10.28;69.87;99845.97;5055028;28;20040;-63
2022/11/09 06:33:54;;;;;;;18.08;12.60;;;;;;;10.16;69.66;99835.28;5054863;28;20440;-63
2022/11/09 06:36:20;;;;;;;18.23;11.93;;;;;;;10.29;69.89;99851.22;5046993;28;20060;-63
2022/11/09 06:38:50;;;;;;;20.20;12.05;;;;;;;10.31;70.30;99856.44;5048767;28;20067;-63
2022/11/09 06:41:16;;;;;;;20.52;13.70;;;;;;;10.30;70.21;99854.72;5035654;28;20033;-63
2022/11/09 06:43:42;;;;;;;17.15;10.73;;;;;;;10.26;70.16;99845.25;5053552;28;20045;-64
2022/11/09 06:46:09;;;;;;;16.58;11.15;;;;;;;10.37;70.05;99861.31;5054453;28;20529;-62
2022/11/09 06:48:36;;;;;;;16.60;11.75;;;;;;;10.39;70.24;99855.81;5048532;28;20448;-63
2022/11/09 06:51:03;;;;;;;18.35;12.50;;;;;;;10.41;70.39;99854.78;5034472;28;20037;-63
2022/11/09 06:53:30;;;;;;;18.52;12.85;;;;;;;10.45;70.35;99866.06;5034257;28;20444;-62
2022/11/09 06:56:00;;;;;;;18.23;11.90;;;;;;;10.47;70.28;99875.69;5041950;28;20116;-63
2022/11/09 06:58:26;;;;;;;21.33;13.23;;;;;;;10.48;70.34;99877.41;5050001;28;20364;-65
2022/11/09 07:00:52;;;;;;;18.95;13.27;;;;;;;10.52;70.39;99879.81;5034294;28;20044;-63
2022/11/09 07:03:19;;;;;;;21.77;13.25;;;;;;;10.55;70.69;99883.13;5034399;28;20037;-62
2022/11/09 07:05:45;;;;;;;19.88;13.30;;;;;;;10.53;70.33;99878.84;5040926;28;20021;-65
2022/11/09 07:08:12;;;;;;;22.00;12.93;;;;;;;10.51;70.72;99886.16;5053397;28;20044;-76
2022/11/09 07:10:38;;;;;;;22.77;13.10;;;;;;;10.53;70.48;99884.19;5052610;28;20029;-68
2022/11/09 07:13:05;;;;;;;27.35;13.65;;;;;;;10.54;70.26;99899.28;5053353;28;20244;-67
2022/11/09 07:15:31;;;;;;;22.75;12.85;;;;;;;10.39;70.75;99870.06;5040985;28;21426;-62
2022/11/09 07:18:01;;;;;;;18.58;12.35;;;;;;;10.40;70.58;99869.13;5046855;28;20047;-64
2022/11/09 07:20:27;;;;;;;20.02;12.27;;;;;;;10.63;70.35;99895.91;5053393;28;20036;-62
2022/11/09 07:22:52;;;;;;;23.45;12.52;;;;;;;10.64;70.27;99902.97;5046565;28;20065;-62
2022/11/09 07:25:19;;;;;;;16.33;11.18;;;;;;;10.68;70.12;99900.88;5043474;28;20057;-62
2022/11/09 07:27:44;;;;;;;22.40;11.65;;;;;;;10.66;70.03;99900.13;5049426;28;20040;-62
2022/11/09 07:30:10;;;;;;;17.85;10.95;;;;;;;10.62;70.29;99900.38;5036613;28;20020;-61
2022/11/09 07:32:37;;;;;;;19.00;11.23;;;;;;;10.58;70.63;99904.28;5052039;28;20098;-62
2022/11/09 07:35:04;;;;;;;16.42;11.13;;;;;;;10.53;70.70;99905.63;5050469;28;20032;-62
2022/11/09 07:37:30;;;;;;;17.73;11.35;;;;;;;10.35;70.94;99879.28;5052219;28;20048;-62
2022/11/09 07:39:56;;;;;;;20.95;11.82;;;;;;;10.37;70.61;99871.16;5034963;28;20348;-63
2022/11/09 07:42:22;;;;;;;21.48;11.70;;;;;;;10.57;70.65;99904.41;5033057;28;20049;-62
2022/11/09 07:44:48;;;;;;;14.90;10.27;;;;;;;10.53;70.69;99900.25;5043969;28;20359;-61
2022/11/09 07:47:15;;;;;;;18.92;10.85;;;;;;;10.50;71.00;99914.75;5052356;28;20033;-61
2022/11/09 07:49:40;;;;;;;18.45;12.13;;;;;;;10.47;71.18;99923.00;5052322;28;20055;-62
2022/11/09 07:52:06;;;;;;;22.20;13.55;;;;;;;10.45;71.19;99912.44;5041813;28;20528;-61
2022/11/09 07:54:31;;;;;;;20.15;13.52;;;;;;;10.53;71.30;99913.66;5032077;28;20041;-59
2022/11/09 07:56:57;;;;;;;21.75;12.48;;;;;;;10.53;71.10;99905.63;5044191;28;20083;-64
2022/11/09 07:59:22;;;;;;;17.80;11.52;;;;;;;10.50;71.21;99917.44;5042579;28;20448;-65
2022/11/09 08:01:47;;;;;;;18.48;11.90;;;;;;;10.50;71.24;99917.44;5034400;28;20040;-66
2022/11/09 08:04:13;;;;;;;19.98;11.73;;;;;;;10.51;71.73;99916.47;5053104;28;20119;-67
2022/11/09 08:06:39;;;;;;;21.10;11.85;;;;;;;10.53;71.53;99927.91;5043109;28;20041;-61
2022/11/09 08:09:04;;;;;;;20.45;12.35;;;;;;;10.50;71.71;99908.53;5040328;28;20066;-62
2022/11/09 08:11:30;;;;;;;19.52;12.70;;;;;;;10.56;71.62;99916.94;5051200;28;20044;-61
2022/11/09 08:13:55;;;;;;;20.95;12.77;;;;;;;10.56;71.59;99919.63;5052024;28;20029;-62
2022/11/09 08:16:21;;;;;;;20.65;12.88;;;;;;;10.58;71.45;99919.47;5048919;28;20040;-61
2022/11/09 08:18:49;;;;;;;18.98;12.55;;;;;;;10.37;71.39;99885.41;5037689;28;20029;-62
2022/11/09 08:21:14;;;;;;;19.90;12.32;;;;;;;10.61;71.67;99917.44;5037314;28;20065;-63
2022/11/09 08:23:40;;;;;;;23.73;13.68;;;;;;;10.68;71.53;99919.59;5037935;28;20064;-61
2022/11/09 08:26:06;;;;;;;21.05;13.02;;;;;;;10.72;71.45;99919.25;5044007;28;20431;-61
2022/11/09 08:28:32;;;;;;;21.27;13.23;;;;;;;10.59;71.21;99881.91;5046434;28;20028;-60
2022/11/09 08:31:01;;;;;;;19.63;12.90;;;;;;;10.88;70.55;99913.50;5040153;28;20036;-59
2022/11/09 08:33:29;;;;;;;22.33;14.00;;;;;;;10.98;70.61;99921.66;5040576;28;20117;-61
2022/11/09 08:35:55;;;;;;;20.33;12.80;;;;;;;10.99;70.50;99920.69;5040121;28;20064;-60
2022/11/09 08:38:21;;;;;;;19.08;12.20;;;;;;;11.05;70.06;99917.50;5039442;28;20522;-62
2022/11/09 08:40:47;;;;;;;17.50;12.43;;;;;;;11.10;69.95;99918.97;5041020;28;20443;-62
2022/11/09 08:43:12;;;;;;;21.27;12.52;;;;;;;11.15;70.04;99912.25;5042394;28;20060;-60
2022/11/09 08:45:40;;;;;;;15.05;10.63;;;;;;;11.21;69.73;99916.25;5041225;28;20041;-60
2022/11/09 08:48:07;;;;;;;17.88;11.50;;;;;;;11.24;69.47;99916.00;5038943;28;20834;-60
2022/11/09 08:50:34;;;;;;;20.45;10.98;;;;;;;11.26;69.39;99910.53;5040742;28;20033;-57
2022/11/09 08:53:01;;;;;;;20.60;11.65;;;;;;;11.26;69.57;99919.41;5040908;28;20025;-60
2022/11/09 08:55:26;;;;;;;18.05;10.73;;;;;;;11.30;69.31;99903.94;5041765;28;20111;-58
2022/11/09 08:57:55;;;;;;;16.17;11.02;;;;;;;11.35;69.15;99915.09;5043092;28;20372;-62
2022/11/09 09:00:20;;;;;;;14.30;10.15;;;;;;;11.33;69.20;99914.38;5037475;28;20025;-61
2022/11/09 09:02:46;;;;;;;16.77;10.65;;;;;;;11.34;69.15;99910.72;5038609;28;20117;-62
2022/11/09 09:05:11;;;;;;;14.38;10.38;;;;;;;11.31;69.10;99911.81;5045813;28;20040;-62
2022/11/09 09:07:36;;;;;;;16.85;10.25;;;;;;;11.31;68.87;99905.63;5052145;28;20068;-62
2022/11/09 09:10:03;;;;;;;17.42;10.75;;;;;;;11.29;69.42;99915.63;5052000;28;20124;-60
2022/11/09 09:12:29;;;;;;;14.75;10.27;;;;;;;11.26;69.56;99908.69;5051621;28;20036;-59
2022/11/09 09:14:55;;;;;;;18.38;10.40;;;;;;;11.25;69.68;99906.97;5051403;28;20041;-57
2022/11/09 09:17:20;;;;;;;17.30;10.82;;;;;;;11.12;69.46;99884.88;5051347;28;20108;-60
2022/11/09 09:19:45;;;;;;;17.20;11.48;;;;;;;11.29;69.37;99910.25;5051238;28;20052;-60
2022/11/09 09:22:11;;;;;;;17.35;11.10;;;;;;;11.18;69.26;99889.72;5051688;28;20029;-57
2022/11/09 09:24:36;;;;;;;19.27;11.82;;;;;;;11.27;69.50;99913.06;5050359;28;20080;-61
2022/11/09 09:27:02;;;;;;;19.38;12.82;;;;;;;11.22;69.53;99901.88;5037917;28;20065;-58
2022/11/09 09:29:27;;;;;;;18.10;12.95;;;;;;;11.20;69.67;99904.66;5031450;28;20033;-58
2022/11/09 09:31:53;;;;;;;17.45;12.60;;;;;;;11.25;69.49;99909.66;5039031;28;20026;-58
2022/11/09 09:34:18;;;;;;;20.02;13.18;;;;;;;11.20;69.46;99899.31;5037857;28;20030;-62
2022/11/09 09:36:43;;;;;;;22.27;13.27;;;;;;;11.25;69.66;99906.97;5041498;28;20036;-61
2022/11/09 09:39:09;;;;;;;18.23;11.68;;;;;;;11.27;69.46;99899.66;5044893;28;20033;-57
2022/11/09 09:41:55;;;;;;;20.85;11.75;;;;;;;11.41;69.68;99905.72;5051121;28;20079;-58
2022/11/09 09:44:35;;;;;;;15.13;11.35;;;;;;;11.39;69.52;99908.50;5049972;28;20037;-58
2022/11/09 09:47:14;;;;;;;17.52;12.68;;;;;;;11.42;69.49;99912.78;5043395;28;20468;-63
2022/11/09 09:50:02;;;;;;;18.23;12.10;;;;;;;11.46;69.66;99914.22;5054428;28;20417;-62
2022/11/09 09:52:45;;;;;;;16.45;11.52;;;;;;;11.27;69.44;99869.34;5055133;28;20443;-61
2022/11/09 09:55:10;;;;;;;18.05;11.82;;;;;;;11.31;69.44;99906.47;5053546;28;20456;-62
2022/11/09 09:57:36;;;;;;;18.88;12.18;;;;;;;11.25;69.73;99892.75;5051429;28;20048;-62
2022/11/09 10:00:05;;;;;;;20.13;13.20;;;;;;;11.26;69.96;99897.97;5049924;28;20134;-63
2022/11/09 10:02:35;;;;;;;19.35;13.50;;;;;;;11.29;69.83;99902.22;5053527;28;20090;-55
2022/11/09 10:05:08;;;;;;;17.55;12.73;;;;;;;11.30;70.13;99903.94;5054281;28;20098;-59
2022/11/09 10:07:52;;;;;;;21.08;13.38;;;;;;;11.46;70.19;99908.88;5044403;28;20456;-58
2022/11/09 10:10:36;;;;;;;20.52;14.43;;;;;;;11.49;69.92;99904.09;5042113;28;20041;-60
2022/11/09 10:13:22;;;;;;;19.08;13.95;;;;;;;11.40;69.68;99902.16;5040569;28;20041;-54
2022/11/09 10:16:04;;;;;;;21.52;14.10;;;;;;;11.45;69.94;99907.16;5044236;28;20102;-57
2022/11/09 10:18:48;;;;;;;18.63;12.95;;;;;;;11.43;70.29;99909.13;5047941;28;20459;-63
2022/11/09 10:21:13;;;;;;;21.30;13.35;;;;;;;11.28;70.21;99908.56;5044455;28;20036;-63
2022/11/09 10:24:05;;;;;;;18.70;13.40;;;;;;;11.41;70.34;99905.72;5050691;28;20047;-61
2022/11/09 10:26:47;;;;;;;18.65;12.98;;;;;;;11.42;70.44;99907.41;5034979;28;20036;-65
2022/11/09 10:29:21;;;;;;;17.92;12.05;;;;;;;11.36;70.58;99902.56;5034961;28;20036;-62
2022/11/09 10:31:49;;;;;;;19.15;11.73;;;;;;;11.39;70.64;99903.16;5034095;28;20477;-64
2022/11/09 10:34:23;;;;;;;15.63;11.02;;;;;;;11.42;70.58;99905.56;5034557;28;20045;-61
2022/11/09 10:37:16;;;;;;;13.85;9.88;;;;;;;11.40;70.61;99882.56;5034605;28;20045;-63
2022/11/09 10:39:51;;;;;;;14.07;9.52;;;;;;;11.46;70.25;99900.81;5045340;28;20498;-62
2022/11/09 10:42:17;;;;;;;15.90;9.75;;;;;;;11.41;70.13;99909.22;5052767;28;20060;-64
2022/11/09 10:44:42;;;;;;;13.65;10.25;;;;;;;11.34;70.59;99900.88;5042108;28;20053;-64
2022/11/09 10:47:16;;;;;;;14.48;9.70;;;;;;;11.46;70.79;99908.88;5042599;28;20104;-63
2022/11/09 10:49:42;;;;;;;14.80;9.93;;;;;;;11.23;70.71;99878.63;5052998;28;20045;-63
2022/11/09 10:52:38;;;;;;;15.27;10.13;;;;;;;11.57;70.93;99914.16;5053445;28;20348;-64
2022/11/09 10:55:16;;;;;;;14.60;9.68;;;;;;;11.57;70.66;99911.47;5035545;28;20402;-61
2022/11/09 10:58:02;;;;;;;14.80;10.00;;;;;;;11.53;70.94;99906.53;5043744;28;20048;-61
2022/11/09 11:00:28;;;;;;;17.27;10.68;;;;;;;11.33;70.91;99895.63;5036481;28;20098;-61
2022/11/09 11:02:54;;;;;;;15.10;10.15;;;;;;;11.41;70.97;99909.22;5049944;28;20044;-58
2022/11/09 11:05:25;;;;;;;14.13;10.10;;;;;;;11.46;71.22;99912.41;5033884;28;20029;-60
2022/11/09 11:07:50;;;;;;;15.75;10.20;;;;;;;11.44;71.07;99914.34;5042196;28;20040;-62
2022/11/09 11:10:16;;;;;;;13.95;9.60;;;;;;;11.44;70.97;99908.13;5034688;28;20033;-58
2022/11/09 11:12:43;;;;;;;16.60;10.20;;;;;;;11.19;71.12;99875.34;5053719;28;20037;-60
2022/11/09 11:15:27;;;;;;;13.02;9.55;;;;;;;11.46;71.60;99916.91;5052836;28;20041;-58
2022/11/09 11:18:03;;;;;;;16.63;9.85;;;;;;;11.39;71.67;99910.34;5053187;28;20036;-59
2022/11/09 11:20:30;;;;;;;14.85;10.13;;;;;;;11.33;71.99;99903.66;5047574;28;20120;-61
2022/11/09 11:23:20;;;;;;;14.57;10.48;;;;;;;11.44;71.93;99910.81;5044874;28;20037;-62
2022/11/09 11:25:54;;;;;;;15.32;10.05;;;;;;;11.40;71.74;99910.22;5045391;28;20375;-62
2022/11/09 11:28:39;;;;;;;17.83;11.18;;;;;;;11.22;71.55;99874.25;5033675;28;20057;-67